createdAt,value
2022-10-26T00:01:32.430Z,24.50
2022-10-26T00:04:01.363Z,24.60
2022-10-26T00:06:30.329Z,24.60
2022-10-26T00:08:59.829Z,24.70
2022-10-26T00:11:28.807Z,24.70
2022-10-26T00:13:57.712Z,24.80
2022-10-26T00:16:28.906Z,24.90
2022-10-26T00:18:58.013Z,24.90
2022-10-26T00:21:26.980Z,25.00
2022-10-26T00:23:55.878Z,25.10
2022-10-26T00:26:24.813Z,25.20
2022-10-26T00:28:58.460Z,25.30
2022-10-26T00:31:27.510Z,25.40
2022-10-26T00:33:57.400Z,25.50
2022-10-26T00:36:27.611Z,25.60
2022-10-26T00:38:58.318Z,25.70
2022-10-26T00:41:31.224Z,25.80
2022-10-26T00:44:01.257Z,25.90
2022-10-26T00:46:33.883Z,26.00
2022-10-26T00:49:13.240Z,26.10
2022-10-26T00:51:47.191Z,26.10
2022-10-26T00:54:19.508Z,26.30
2022-10-26T00:56:52.724Z,26.40
2022-10-26T00:59:24.531Z,26.40
2022-10-26T01:01:54.485Z,26.50
2022-10-26T01:04:23.846Z,26.50
2022-10-26T01:06:54.286Z,26.60
2022-10-26T01:09:24.219Z,26.70
2022-10-26T01:11:53.144Z,26.80
2022-10-26T01:14:23.197Z,27.00
2022-10-26T01:17:23.314Z,27.10
2022-10-26T01:20:15.941Z,27.20
2022-10-26T01:22:59.504Z,27.40
2022-10-26T01:25:49.848Z,27.60
2022-10-26T01:28:48.669Z,27.70
2022-10-26T01:31:27.233Z,27.80
2022-10-26T01:34:15.700Z,27.90
2022-10-26T01:37:21.164Z,28.00
2022-10-26T01:39:56.436Z,28.10
2022-10-26T01:42:27.597Z,28.20
2022-10-26T01:45:18.640Z,28.30
2022-10-26T01:47:50.233Z,28.40
2022-10-26T01:50:21.834Z,28.50
2022-10-26T01:52:54.669Z,28.50
2022-10-26T01:56:03.074Z,28.60
2022-10-26T01:58:50.003Z,28.70
2022-10-26T02:01:25.158Z,28.70
2022-10-26T02:04:30.655Z,28.80
2022-10-26T02:07:07.323Z,29.00
2022-10-26T02:09:40.686Z,29.10
2022-10-26T02:12:23.438Z,29.20
2022-10-26T02:15:20.579Z,29.30
2022-10-26T02:18:26.153Z,29.50
2022-10-26T02:21:01.372Z,29.60
2022-10-26T02:23:32.001Z,29.60
2022-10-26T02:26:03.594Z,29.70
2022-10-26T02:28:40.567Z,29.90
2022-10-26T02:31:10.840Z,30.00
2022-10-26T02:33:43.350Z,30.20
2022-10-26T02:36:16.964Z,30.30
2022-10-26T02:38:48.726Z,30.40
2022-10-26T02:41:18.787Z,30.50
2022-10-26T02:43:55.830Z,30.50
2022-10-26T02:46:28.353Z,30.60
2022-10-26T02:48:58.322Z,30.60
2022-10-26T02:52:06.037Z,30.80
2022-10-26T02:54:41.435Z,30.90
2022-10-26T02:57:25.670Z,31.00
2022-10-26T02:59:55.689Z,31.10
2022-10-26T03:02:25.162Z,31.20
2022-10-26T03:04:55.721Z,31.30
2022-10-26T03:07:27.736Z,31.40
2022-10-26T03:09:56.623Z,31.50
2022-10-26T03:12:25.496Z,31.60
2022-10-26T03:14:54.301Z,31.60
2022-10-26T03:17:23.139Z,31.50
2022-10-26T03:19:51.996Z,31.50
2022-10-26T03:22:20.926Z,31.40
2022-10-26T03:24:49.806Z,31.40
2022-10-26T03:27:18.753Z,31.40
2022-10-26T03:29:47.649Z,31.50
2022-10-26T03:32:16.674Z,31.60
2022-10-26T03:34:45.623Z,31.70
2022-10-26T03:37:14.822Z,31.70
2022-10-26T03:39:43.740Z,31.70
2022-10-26T03:42:12.693Z,31.80
2022-10-26T03:44:41.679Z,31.90
2022-10-26T03:47:10.721Z,31.90
2022-10-26T03:49:39.609Z,32.00
2022-10-26T03:52:08.551Z,32.10
2022-10-26T03:54:37.416Z,32.10
2022-10-26T03:57:06.385Z,32.20
2022-10-26T03:59:35.235Z,32.30
2022-10-26T04:02:04.295Z,32.40
2022-10-26T04:04:33.231Z,32.40
2022-10-26T04:07:02.267Z,32.60
2022-10-26T04:09:31.125Z,32.70
2022-10-26T04:12:02.707Z,32.80
2022-10-26T04:14:31.616Z,33.00
2022-10-26T04:17:02.978Z,33.10
2022-10-26T04:19:31.921Z,33.10
2022-10-26T04:22:00.917Z,33.10
2022-10-26T04:24:29.833Z,33.10
2022-10-26T04:26:58.722Z,33.10
2022-10-26T04:29:27.649Z,33.10
2022-10-26T04:31:56.513Z,33.10
2022-10-26T04:34:25.618Z,33.00
2022-10-26T04:36:54.573Z,32.90
2022-10-26T04:39:23.493Z,32.80
2022-10-26T04:41:52.435Z,32.70
2022-10-26T04:44:21.347Z,32.70
2022-10-26T04:46:50.351Z,32.60
2022-10-26T04:49:19.329Z,32.60
2022-10-26T04:51:48.249Z,32.50
2022-10-26T04:54:17.357Z,32.40
2022-10-26T04:59:15.867Z,32.20
2022-10-26T05:01:44.894Z,32.10
2022-10-26T05:04:14.026Z,32.00
2022-10-26T05:06:43.101Z,31.90
2022-10-26T05:09:12.169Z,32.00
2022-10-26T05:11:41.064Z,31.90
2022-10-26T05:14:10.834Z,31.80
2022-10-26T05:16:39.820Z,31.70
2022-10-26T05:19:08.907Z,31.60
2022-10-26T05:21:37.837Z,31.50
2022-10-26T05:24:10.165Z,31.40
2022-10-26T05:26:41.445Z,31.40
2022-10-26T05:29:10.385Z,31.50
2022-10-26T05:31:39.222Z,31.60
2022-10-26T05:34:16.101Z,31.60
2022-10-26T05:36:45.056Z,31.60
2022-10-26T05:39:13.970Z,31.60
2022-10-26T05:41:42.837Z,31.60
2022-10-26T05:44:11.762Z,31.60
2022-10-26T05:46:40.757Z,31.60
2022-10-26T05:49:09.713Z,31.70
2022-10-26T05:51:51.860Z,31.70
2022-10-26T05:54:20.767Z,31.60
2022-10-26T05:56:50.088Z,31.60
2022-10-26T05:59:19.405Z,31.50
2022-10-26T06:02:13.058Z,31.40
2022-10-26T06:04:51.891Z,31.40
2022-10-26T06:07:22.073Z,31.30
2022-10-26T06:09:51.559Z,31.40
2022-10-26T06:12:20.721Z,31.40
2022-10-26T06:14:49.945Z,31.50
2022-10-26T06:17:54.937Z,31.70
2022-10-26T06:20:39.451Z,32.00
2022-10-26T06:23:26.760Z,32.30
2022-10-26T06:26:14.171Z,32.50
2022-10-26T06:29:15.283Z,32.70
2022-10-26T06:31:44.302Z,32.90
2022-10-26T06:34:16.552Z,32.90
2022-10-26T06:36:46.014Z,32.90
2022-10-26T06:39:18.191Z,32.60
2022-10-26T06:41:47.382Z,32.30
2022-10-26T06:44:24.795Z,32.00
2022-10-26T06:47:02.851Z,31.60
2022-10-26T06:49:34.622Z,31.30
2022-10-26T06:52:09.417Z,31.00
2022-10-26T06:54:55.737Z,30.80
2022-10-26T06:57:36.058Z,30.60
2022-10-26T07:00:18.372Z,30.40
2022-10-26T07:02:50.890Z,30.20
2022-10-26T07:05:20.212Z,30.10
2022-10-26T07:07:49.967Z,30.10
2022-10-26T07:10:19.133Z,30.10
2022-10-26T07:12:48.011Z,30.10
2022-10-26T07:15:16.987Z,30.10
2022-10-26T07:17:50.705Z,30.20
2022-10-26T07:20:23.445Z,30.20
2022-10-26T07:22:59.171Z,30.20
2022-10-26T07:25:28.212Z,30.30
2022-10-26T07:28:01.140Z,30.30
2022-10-26T07:30:31.260Z,30.40
2022-10-26T07:33:05.333Z,30.60
2022-10-26T07:35:35.575Z,30.80
2022-10-26T07:38:05.612Z,31.10
2022-10-26T07:40:34.984Z,31.30
2022-10-26T07:43:04.438Z,31.50
2022-10-26T07:45:33.821Z,31.70
2022-10-26T07:48:03.012Z,32.00
2022-10-26T07:50:31.900Z,32.10
2022-10-26T07:53:01.294Z,32.20
2022-10-26T07:55:30.211Z,32.20
2022-10-26T07:58:01.832Z,32.20
2022-10-26T08:00:31.114Z,32.20
2022-10-26T08:03:00.064Z,32.20
2022-10-26T08:05:29.105Z,32.20
2022-10-26T08:07:58.198Z,32.20
2022-10-26T08:10:27.158Z,32.10
2022-10-26T08:12:56.218Z,32.00
2022-10-26T08:15:25.146Z,31.70
2022-10-26T08:17:54.109Z,31.30
2022-10-26T08:20:23.092Z,30.50
2022-10-26T08:22:52.407Z,30.20
2022-10-26T08:25:25.456Z,29.90
2022-10-26T08:27:55.359Z,29.50
2022-10-26T08:30:24.266Z,29.10
2022-10-26T08:33:01.251Z,28.80
2022-10-26T08:35:30.709Z,28.50
2022-10-26T08:37:59.850Z,28.20
2022-10-26T08:40:32.085Z,27.90
2022-10-26T08:43:13.470Z,27.80
2022-10-26T08:45:50.691Z,27.60
2022-10-26T08:48:25.458Z,27.40
2022-10-26T08:51:02.346Z,27.30
2022-10-26T08:53:53.902Z,27.20
2022-10-26T08:56:43.108Z,27.10
2022-10-26T08:59:42.204Z,27.10
2022-10-26T09:02:18.619Z,27.00
2022-10-26T09:04:47.921Z,27.00
2022-10-26T09:07:26.756Z,27.00
2022-10-26T09:10:17.067Z,26.90
2022-10-26T09:13:25.891Z,26.90
2022-10-26T09:16:29.745Z,26.90
2022-10-26T09:19:19.922Z,27.00
2022-10-26T09:22:03.930Z,27.00
2022-10-26T09:24:40.459Z,27.00
2022-10-26T09:27:27.881Z,27.10
2022-10-26T09:30:02.408Z,27.10
2022-10-26T09:32:51.755Z,27.10
2022-10-26T09:36:06.715Z,27.00
2022-10-26T09:38:55.000Z,26.70
2022-10-26T09:41:32.048Z,26.50
2022-10-26T09:44:20.763Z,26.30
2022-10-26T09:47:25.836Z,26.20
2022-10-26T09:49:59.958Z,26.00
2022-10-26T09:52:29.039Z,25.90
2022-10-26T09:54:57.991Z,25.80
2022-10-26T09:57:26.953Z,25.90
2022-10-26T09:59:56.771Z,25.80
2022-10-26T10:02:36.152Z,25.90
2022-10-26T10:05:32.571Z,25.80
2022-10-26T10:08:24.792Z,25.90
2022-10-26T10:10:57.976Z,25.80
2022-10-26T10:13:30.603Z,25.80
2022-10-26T10:16:22.023Z,25.80
2022-10-26T10:19:03.677Z,25.80
2022-10-26T10:21:40.173Z,25.90
2022-10-26T10:24:28.604Z,25.90
2022-10-26T10:27:18.559Z,25.90
2022-10-26T10:29:59.869Z,26.00
2022-10-26T10:32:37.060Z,26.00
2022-10-26T10:35:27.949Z,26.00
2022-10-26T10:37:56.836Z,26.00
2022-10-26T10:40:28.910Z,26.10
2022-10-26T10:43:13.439Z,26.10
2022-10-26T10:45:47.835Z,26.10
2022-10-26T10:48:19.782Z,26.20
2022-10-26T10:51:13.404Z,26.20
2022-10-26T10:53:55.068Z,26.20
2022-10-26T10:56:50.435Z,26.30
2022-10-26T10:59:28.423Z,26.30
2022-10-26T11:02:17.703Z,26.30
2022-10-26T11:04:55.606Z,26.40
2022-10-26T11:07:27.821Z,26.30
2022-10-26T11:09:58.691Z,26.40
2022-10-26T11:15:19.539Z,26.40
2022-10-26T11:17:48.254Z,26.40
2022-10-26T11:20:22.360Z,26.40
2022-10-26T11:22:54.370Z,26.40
2022-10-26T11:25:36.371Z,26.40
2022-10-26T11:28:31.781Z,26.40
2022-10-26T11:31:07.573Z,26.40
2022-10-26T11:33:44.373Z,26.30
2022-10-26T11:36:22.065Z,26.30
2022-10-26T11:39:06.148Z,26.30
2022-10-26T11:41:40.727Z,26.30
2022-10-26T11:44:20.256Z,26.30
2022-10-26T11:47:06.333Z,26.30
2022-10-26T11:49:43.384Z,26.30
2022-10-26T11:52:12.243Z,26.30
2022-10-26T11:55:05.657Z,26.20
2022-10-26T11:57:36.927Z,26.20
2022-10-26T12:00:10.956Z,26.10
2022-10-26T12:02:44.478Z,26.10
2022-10-26T12:05:22.318Z,26.10
2022-10-26T12:07:57.833Z,26.10
2022-10-26T12:10:35.434Z,26.10
2022-10-26T12:13:34.910Z,26.00
2022-10-26T12:16:48.295Z,26.00
2022-10-26T12:19:52.245Z,26.00
2022-10-26T12:22:24.479Z,26.10
2022-10-26T12:25:23.561Z,26.10
2022-10-26T12:27:57.968Z,26.10
2022-10-26T12:30:30.088Z,26.10
2022-10-26T12:33:05.290Z,26.10
2022-10-26T12:35:44.545Z,26.10
2022-10-26T12:38:48.797Z,26.10
2022-10-26T12:41:23.789Z,26.20
2022-10-26T12:43:56.986Z,26.30
2022-10-26T12:46:28.892Z,26.30
2022-10-26T12:49:01.068Z,26.30
2022-10-26T12:51:36.206Z,26.30
2022-10-26T12:54:46.055Z,26.30
2022-10-26T12:57:56.920Z,26.30
2022-10-26T13:00:28.815Z,26.30
2022-10-26T13:03:25.285Z,26.30
2022-10-26T13:06:12.554Z,26.30
2022-10-26T13:08:46.119Z,26.30
2022-10-26T13:11:27.089Z,26.20
2022-10-26T13:14:09.352Z,26.30
2022-10-26T13:16:38.330Z,26.20
2022-10-26T13:19:07.944Z,26.30
2022-10-26T13:21:49.230Z,26.30
2022-10-26T13:24:18.475Z,26.30
2022-10-26T13:27:19.840Z,26.30
2022-10-26T13:30:06.914Z,26.40
2022-10-26T13:32:42.027Z,26.40
2022-10-26T13:35:17.927Z,26.40
2022-10-26T13:37:51.868Z,26.40
2022-10-26T13:40:29.819Z,26.40
2022-10-26T13:43:07.572Z,26.50
2022-10-26T13:45:50.749Z,26.50
2022-10-26T13:48:47.157Z,26.40
2022-10-26T13:51:26.670Z,26.30
2022-10-26T13:54:14.475Z,26.30
2022-10-26T13:56:59.566Z,26.30
2022-10-26T13:59:32.214Z,26.30
2022-10-26T14:02:19.199Z,26.20
2022-10-26T14:05:15.633Z,26.20
2022-10-26T14:07:57.213Z,26.10
2022-10-26T14:10:34.401Z,26.10
2022-10-26T14:13:08.230Z,26.10
2022-10-26T14:15:37.193Z,26.10
2022-10-26T14:18:06.675Z,26.00
2022-10-26T14:20:35.636Z,26.00
2022-10-26T14:23:04.563Z,26.00
2022-10-26T14:25:47.939Z,26.00
2022-10-26T14:28:27.400Z,26.00
2022-10-26T14:30:55.982Z,26.10
2022-10-26T14:33:30.676Z,26.10
2022-10-26T14:35:59.696Z,26.10
2022-10-26T14:38:32.559Z,26.10
2022-10-26T14:41:01.501Z,26.10
2022-10-26T14:43:30.767Z,26.10
2022-10-26T14:45:59.797Z,26.10
2022-10-26T14:48:34.075Z,26.10
2022-10-26T14:51:18.814Z,26.10
2022-10-26T14:53:53.250Z,26.10
2022-10-26T14:56:31.991Z,26.10
2022-10-26T14:59:01.359Z,26.10
2022-10-26T15:01:35.852Z,26.10
2022-10-26T15:04:24.359Z,26.10
2022-10-26T15:06:53.627Z,26.10
2022-10-26T15:09:53.021Z,26.10
2022-10-26T15:12:37.990Z,26.10
2022-10-26T15:15:16.107Z,26.00
2022-10-26T15:18:00.792Z,26.00
2022-10-26T15:20:31.155Z,26.00
2022-10-26T15:23:04.979Z,26.00
2022-10-26T15:25:36.207Z,25.90
2022-10-26T15:28:40.431Z,25.90
2022-10-26T15:31:12.352Z,25.90
2022-10-26T15:33:44.384Z,25.90
2022-10-26T15:36:19.001Z,25.90
2022-10-26T15:38:51.779Z,25.80
2022-10-26T15:41:47.075Z,25.80
2022-10-26T15:44:21.878Z,25.90
2022-10-26T15:46:51.627Z,25.80
2022-10-26T15:49:22.889Z,25.80
2022-10-26T15:51:51.928Z,25.80
2022-10-26T15:54:20.861Z,25.80
2022-10-26T15:56:49.967Z,25.80
2022-10-26T15:59:20.681Z,25.80
2022-10-26T16:01:49.829Z,25.80
2022-10-26T16:04:18.901Z,25.90
2022-10-26T16:06:48.059Z,25.90
2022-10-26T16:09:19.228Z,26.00
2022-10-26T16:11:48.141Z,26.00
2022-10-26T16:14:17.048Z,26.00
2022-10-26T16:16:45.943Z,26.00
2022-10-26T16:19:31.460Z,26.00
2022-10-26T16:22:01.232Z,26.00
2022-10-26T16:24:33.965Z,26.00
2022-10-26T16:27:03.015Z,26.00
2022-10-26T16:29:32.797Z,26.00
2022-10-26T16:32:01.710Z,26.00
2022-10-26T16:34:30.592Z,26.00
2022-10-26T16:36:59.482Z,26.00
2022-10-26T16:39:28.313Z,26.00
2022-10-26T16:41:57.280Z,26.00
2022-10-26T16:44:26.171Z,26.00
2022-10-26T16:46:55.100Z,26.00
2022-10-26T16:49:24.033Z,26.00
2022-10-26T16:51:53.696Z,26.00
2022-10-26T16:54:22.628Z,26.00
2022-10-26T16:56:51.669Z,26.00
2022-10-26T16:59:20.673Z,26.00
2022-10-26T17:01:49.712Z,26.00
2022-10-26T17:04:18.806Z,26.00
2022-10-26T17:06:47.672Z,26.00
2022-10-26T17:09:16.706Z,26.00
2022-10-26T17:11:45.676Z,26.00
2022-10-26T17:14:14.597Z,26.00
2022-10-26T17:16:43.500Z,26.00
2022-10-26T17:19:13.496Z,26.00
2022-10-26T17:21:42.490Z,26.00
2022-10-26T17:24:12.183Z,26.00
2022-10-26T17:26:42.188Z,26.00
2022-10-26T17:29:13.775Z,26.00
2022-10-26T17:31:42.912Z,25.90
2022-10-26T17:34:11.826Z,26.00
2022-10-26T17:36:40.735Z,26.00
2022-10-26T17:39:10.521Z,25.90
2022-10-26T17:41:39.412Z,25.90
2022-10-26T17:44:08.521Z,25.90
2022-10-26T17:46:37.499Z,25.90
2022-10-26T17:49:06.539Z,25.90
2022-10-26T17:51:35.479Z,25.90
2022-10-26T17:54:04.798Z,25.90
2022-10-26T17:56:35.684Z,25.90
2022-10-26T17:59:07.532Z,25.90
2022-10-26T18:01:36.583Z,25.90
2022-10-26T18:04:05.779Z,25.90
2022-10-26T18:06:34.699Z,25.80
2022-10-26T18:09:03.669Z,25.90
2022-10-26T18:11:32.972Z,25.90
2022-10-26T18:14:01.776Z,25.90
2022-10-26T18:16:32.229Z,25.90
2022-10-26T18:19:06.099Z,25.90
2022-10-26T18:21:35.746Z,25.90
2022-10-26T18:24:04.796Z,25.90
2022-10-26T18:26:33.941Z,25.90
2022-10-26T18:29:04.029Z,25.90
2022-10-26T18:31:35.771Z,25.90
2022-10-26T18:34:07.062Z,25.90
2022-10-26T18:39:05.109Z,25.90
2022-10-26T18:41:34.188Z,25.80
2022-10-26T18:44:03.368Z,25.90
2022-10-26T18:46:35.352Z,25.80
2022-10-26T18:49:06.381Z,25.80
2022-10-26T18:51:36.655Z,25.80
2022-10-26T18:54:05.589Z,25.80
2022-10-26T18:56:34.605Z,25.80
2022-10-26T18:59:03.845Z,25.80
2022-10-26T19:01:37.853Z,25.80
2022-10-26T19:04:12.172Z,25.80
2022-10-26T19:06:46.258Z,25.80
2022-10-26T19:09:19.789Z,25.80
2022-10-26T19:11:49.622Z,25.80
2022-10-26T19:14:18.609Z,25.80
2022-10-26T19:16:48.423Z,25.70
2022-10-26T19:19:18.658Z,25.70
2022-10-26T19:21:48.989Z,25.80
2022-10-26T19:24:23.895Z,25.70
2022-10-26T19:26:53.510Z,25.70
2022-10-26T19:29:22.798Z,25.70
2022-10-26T19:31:54.313Z,25.70
2022-10-26T19:34:23.437Z,25.70
2022-10-26T19:36:52.381Z,25.70
2022-10-26T19:39:21.259Z,25.70
2022-10-26T19:41:50.195Z,25.70
2022-10-26T19:44:23.211Z,25.70
2022-10-26T19:46:54.269Z,25.70
2022-10-26T19:49:23.466Z,25.70
2022-10-26T19:51:52.557Z,25.70
2022-10-26T19:54:21.470Z,25.70
2022-10-26T19:56:50.424Z,25.70
2022-10-26T19:59:19.392Z,25.70
2022-10-26T20:01:48.466Z,25.70
2022-10-26T20:04:17.469Z,25.70
2022-10-26T20:06:46.488Z,25.70
2022-10-26T20:12:04.104Z,25.60
2022-10-26T20:14:33.043Z,25.60
2022-10-26T20:17:03.271Z,25.60
2022-10-26T20:19:32.413Z,25.60
2022-10-26T20:22:01.420Z,25.60
2022-10-26T20:24:30.316Z,25.60
2022-10-26T20:26:59.238Z,25.50
2022-10-26T20:29:28.123Z,25.60
2022-10-26T20:31:57.032Z,25.50
2022-10-26T20:34:26.063Z,25.50
2022-10-26T20:36:55.008Z,25.40
2022-10-26T20:39:24.162Z,25.40
2022-10-26T20:41:53.402Z,25.40
2022-10-26T20:44:27.199Z,25.40
2022-10-26T20:46:56.432Z,25.40
2022-10-26T20:49:25.653Z,25.30
2022-10-26T20:52:21.924Z,25.30
2022-10-26T20:55:13.565Z,25.30
2022-10-26T20:57:54.089Z,25.30
2022-10-26T21:00:23.445Z,25.20
2022-10-26T21:02:52.710Z,25.20
2022-10-26T21:05:22.257Z,25.20
2022-10-26T21:07:51.427Z,25.10
2022-10-26T21:10:20.385Z,25.10
2022-10-26T21:12:49.441Z,25.10
2022-10-26T21:15:18.576Z,25.10
2022-10-26T21:17:47.565Z,25.10
2022-10-26T21:20:16.608Z,25.10
2022-10-26T21:22:45.524Z,25.10
2022-10-26T21:25:14.446Z,25.10
2022-10-26T21:27:43.739Z,25.10
2022-10-26T21:30:13.633Z,25.10
2022-10-26T21:32:42.548Z,25.10
2022-10-26T21:35:11.512Z,25.10
2022-10-26T21:37:40.373Z,25.10
2022-10-26T21:40:10.096Z,25.10
2022-10-26T21:42:38.969Z,25.10
2022-10-26T21:45:08.610Z,25.10
2022-10-26T21:47:37.576Z,25.10
2022-10-26T21:50:06.642Z,25.10
2022-10-26T21:52:35.578Z,25.10
2022-10-26T21:55:04.855Z,25.10
2022-10-26T21:57:33.767Z,25.10
2022-10-26T22:00:02.650Z,25.10
2022-10-26T22:02:31.557Z,25.10
2022-10-26T22:05:00.473Z,25.10
2022-10-26T22:07:29.402Z,25.10
2022-10-26T22:10:10.302Z,25.00
2022-10-26T22:12:39.833Z,25.10
2022-10-26T22:15:09.135Z,25.00
2022-10-26T22:17:42.027Z,25.10
2022-10-26T22:20:12.808Z,25.10
2022-10-26T22:22:41.893Z,25.10
2022-10-26T22:25:10.989Z,25.10
2022-10-26T22:27:39.834Z,25.10
2022-10-26T22:30:09.817Z,25.10
2022-10-26T22:32:38.765Z,25.10
2022-10-26T22:35:28.142Z,25.00
2022-10-26T22:37:56.986Z,25.10
2022-10-26T22:40:25.940Z,25.10
2022-10-26T22:42:54.928Z,25.00
2022-10-26T22:45:23.811Z,25.10
2022-10-26T22:47:52.661Z,25.10
2022-10-26T22:50:21.595Z,25.10
2022-10-26T22:52:50.793Z,25.10
2022-10-26T22:55:19.888Z,25.00
2022-10-26T22:57:49.218Z,25.00
2022-10-26T23:00:18.629Z,25.00
2022-10-26T23:02:47.620Z,25.00
2022-10-26T23:05:16.546Z,25.00
2022-10-26T23:07:45.453Z,25.00
2022-10-26T23:10:14.304Z,24.90
2022-10-26T23:12:43.290Z,24.90
2022-10-26T23:15:12.480Z,24.90
2022-10-26T23:17:41.452Z,24.90
2022-10-26T23:20:11.404Z,24.90
2022-10-26T23:22:40.303Z,24.90
2022-10-26T23:25:09.485Z,24.90
2022-10-26T23:27:38.457Z,24.90
2022-10-26T23:30:08.655Z,24.90
2022-10-26T23:32:37.585Z,24.90
2022-10-26T23:35:06.949Z,24.90
2022-10-26T23:37:35.853Z,24.90
2022-10-26T23:40:05.030Z,24.90
2022-10-26T23:42:34.102Z,24.90
2022-10-26T23:45:06.339Z,24.90
2022-10-26T23:47:36.368Z,24.90
2022-10-26T23:50:05.471Z,25.00
2022-10-26T23:52:34.409Z,25.00
2022-10-26T23:55:03.293Z,25.00
2022-10-26T23:57:32.113Z,25.00
